sensor_id;sensor_type;location;lat;lon;timestamp;pressure;altitude;pressure_sealevel;temperature;humidity
53758;BME280;39674;59.860;30.672;2023-04-25T04:40:46;100440.06;;;10.03;75.36
53758;BME280;39674;59.860;30.672;2023-04-25T04:43:57;100432.63;;;10.10;75.19
53758;BME280;39674;59.860;30.672;2023-04-25T04:47:18;100338.53;;;9.61;73.95
53758;BME280;39674;59.860;30.672;2023-04-25T04:50:15;100443.81;;;10.31;74.01
53758;BME280;39674;59.860;30.672;2023-04-25T04:53:19;100441.50;;;10.42;74.48
53758;BME280;39674;59.860;30.672;2023-04-25T04:56:11;100444.53;;;10.51;72.99
53758;BME280;39674;59.860;30.672;2023-04-25T04:58:58;100396.13;;;10.34;71.73
53758;BME280;39674;59.860;30.672;2023-04-25T05:01:55;100447.94;;;10.69;71.83
53758;BME280;39674;59.860;30.672;2023-04-25T05:04:59;100450.81;;;10.80;70.89
53758;BME280;39674;59.860;30.672;2023-04-25T05:42:18;100392.41;;;11.89;62.79
53758;BME280;39674;59.860;30.672;2023-04-25T05:45:11;100442.91;;;12.29;62.82
53758;BME280;39674;59.860;30.672;2023-04-25T05:48:03;100386.66;;;12.11;62.14
53758;BME280;39674;59.860;30.672;2023-04-25T05:51:00;100443.19;;;12.66;61.12
53758;BME280;39674;59.860;30.672;2023-04-25T06:02:24;100437.31;;;13.95;56.16
53758;BME280;39674;59.860;30.672;2023-04-25T06:05:11;100430.13;;;14.34;55.91
53758;BME280;39674;59.860;30.672;2023-04-25T06:07:50;100425.28;;;14.89;55.14
53758;BME280;39674;59.860;30.672;2023-04-25T06:13:59;100437.41;;;16.10;51.30
53758;BME280;39674;59.860;30.672;2023-04-25T06:16:29;100425.03;;;16.32;48.79
53758;BME280;39674;59.860;30.672;2023-04-25T10:03:43;100411.13;;;21.33;26.23
53758;BME280;39674;59.860;30.672;2023-04-25T21:12:07;100293.75;;;10.86;53.56
53758;BME280;39674;59.860;30.672;2023-04-25T22:43:47;100262.44;;;10.33;60.12
53758;BME280;39674;59.860;30.672;2023-04-25T22:46:36;100206.66;;;9.93;59.14
53758;BME280;39674;59.860;30.672;2023-04-25T22:51:08;100253.75;;;10.31;57.89
53758;BME280;39674;59.860;30.672;2023-04-25T22:52:34;100256.69;;;10.42;58.23
53758;BME280;39674;59.860;30.672;2023-04-25T22:56:12;100247.91;;;10.26;61.36
53758;BME280;39674;59.860;30.672;2023-04-25T22:59:05;100257.06;;;10.35;60.70
53758;BME280;39674;59.860;30.672;2023-04-25T23:02:09;100244.50;;;10.24;59.89
53758;BME280;39674;59.860;30.672;2023-04-25T23:04:57;100213.50;;;9.97;60.44
53758;BME280;39674;59.860;30.672;2023-04-25T23:08:25;100229.34;;;10.11;61.27
53758;BME280;39674;59.860;30.672;2023-04-25T23:11:16;100240.00;;;10.10;61.97
53758;BME280;39674;59.860;30.672;2023-04-25T23:13:56;100227.41;;;9.99;62.93
53758;BME280;39674;59.860;30.672;2023-04-25T23:20:06;100232.88;;;9.96;64.15
53758;BME280;39674;59.860;30.672;2023-04-25T23:23:12;100238.75;;;10.01;63.20
53758;BME280;39674;59.860;30.672;2023-04-25T23:25:43;100236.47;;;9.95;65.10
53758;BME280;39674;59.860;30.672;2023-04-25T23:28:18;100235.78;;;9.91;66.17
53758;BME280;39674;59.860;30.672;2023-04-25T23:30:50;100234.06;;;9.90;64.24
53758;BME280;39674;59.860;30.672;2023-04-25T23:33:20;100231.63;;;9.87;64.21
53758;BME280;39674;59.860;30.672;2023-04-25T23:35:51;100189.94;;;9.62;65.45
53758;BME280;39674;59.860;30.672;2023-04-25T23:42:07;100231.03;;;9.98;63.86
53758;BME280;39674;59.860;30.672;2023-04-25T23:44:53;100232.38;;;9.89;65.86
